createdAt,value
2023-05-10T00:07:12.122Z,100330.50
2023-05-10T00:17:13.628Z,100330.66
2023-05-10T00:27:14.963Z,100322.31
2023-05-10T00:37:16.480Z,100323.19
2023-05-10T00:47:18.330Z,100337.63
2023-05-10T00:57:20.383Z,100333.41
2023-05-10T01:07:21.765Z,100336.97
2023-05-10T01:17:23.773Z,100345.84
2023-05-10T01:27:34.274Z,100348.59
2023-05-10T01:37:47.774Z,100346.97
2023-05-10T01:48:12.063Z,100350.53
2023-05-10T01:58:22.022Z,100354.13
2023-05-10T02:08:24.863Z,100366.25
2023-05-10T02:18:28.626Z,100362.84
2023-05-10T02:28:31.113Z,100364.72
2023-05-10T02:38:35.650Z,100364.78
2023-05-10T02:48:37.117Z,100362.25
2023-05-10T02:58:38.579Z,100370.06
2023-05-10T03:08:40.390Z,100370.94
2023-05-10T03:18:51.810Z,100369.25
2023-05-10T03:28:54.259Z,100382.13
2023-05-10T03:38:55.916Z,100391.34
2023-05-10T03:48:57.258Z,100396.50
2023-05-10T03:58:58.784Z,100399.03
2023-05-10T04:09:01.375Z,100403.38
2023-05-10T04:19:03.696Z,100408.59
2023-05-10T04:29:05.066Z,100408.59
2023-05-10T04:39:06.432Z,100415.53
2023-05-10T04:49:07.924Z,100418.00
2023-05-10T04:59:09.326Z,100422.28
2023-05-10T05:09:11.226Z,100433.63
2023-05-10T05:19:12.705Z,100443.97
2023-05-10T05:29:14.036Z,100446.44
2023-05-10T05:39:15.484Z,100450.78
2023-05-10T05:49:16.869Z,100465.47
2023-05-10T05:59:18.340Z,100459.25
2023-05-10T06:09:19.819Z,100479.09
2023-05-10T06:19:21.345Z,100487.56
2023-05-10T06:29:22.815Z,100491.72
2023-05-10T06:39:24.299Z,100506.78
2023-05-10T06:49:25.779Z,100513.63
2023-05-10T06:59:27.297Z,100518.88
2023-05-10T07:09:29.158Z,100520.47
2023-05-10T07:19:30.715Z,100526.34
2023-05-10T07:29:32.134Z,100523.56
2023-05-10T07:39:33.670Z,100526.09
2023-05-10T07:49:35.237Z,100535.41
2023-05-10T07:59:36.703Z,100544.84
2023-05-10T08:09:38.209Z,100549.13
2023-05-10T08:19:39.679Z,100558.38
2023-05-10T08:29:49.375Z,100559.88
2023-05-10T08:39:51.218Z,100561.19
2023-05-10T08:49:53.477Z,100577.47
2023-05-10T08:59:55.051Z,100591.19
2023-05-10T09:09:57.378Z,100602.25
2023-05-10T09:20:00.329Z,100607.53
2023-05-10T09:30:02.262Z,100613.78
2023-05-10T09:40:08.450Z,100626.94
2023-05-10T09:50:10.629Z,100633.19
2023-05-10T10:00:18.834Z,100645.44
2023-05-10T10:10:20.740Z,100650.81
2023-05-10T10:20:23.693Z,100656.19
2023-05-10T10:30:30.868Z,100655.34
2023-05-10T10:40:35.081Z,100664.91
2023-05-10T10:50:45.696Z,100674.22
2023-05-10T11:00:47.090Z,100677.50
2023-05-10T11:11:00.446Z,100677.16
2023-05-10T11:21:06.289Z,100683.69
2023-05-10T11:31:08.048Z,100682.56
2023-05-10T11:41:11.274Z,100697.63
2023-05-10T11:51:12.681Z,100701.53
2023-05-10T12:01:14.304Z,100703.09
2023-05-10T12:11:18.732Z,100709.16
2023-05-10T12:21:21.880Z,100712.38
2023-05-10T12:31:23.506Z,100703.66
2023-05-10T12:41:26.640Z,100705.25
2023-05-10T12:51:28.034Z,100703.09
2023-05-10T13:01:29.503Z,100704.19
2023-05-10T13:11:30.930Z,100719.50
2023-05-10T13:21:32.269Z,100717.09
2023-05-10T13:31:34.415Z,100727.50
2023-05-10T13:41:35.943Z,100719.72
2023-05-10T13:51:37.435Z,100716.72
2023-05-10T14:01:39.094Z,100710.50
2023-05-10T14:11:44.037Z,100706.59
2023-05-10T14:21:45.430Z,100713.41
2023-05-10T14:31:46.964Z,100695.81
2023-05-10T14:41:48.495Z,100706.44
2023-05-10T14:51:49.987Z,100701.34
2023-05-10T15:01:51.536Z,100703.09
2023-05-10T15:11:54.162Z,100703.00
2023-05-10T15:21:56.252Z,100707.28
2023-05-10T15:31:58.942Z,100707.50
2023-05-10T15:42:00.330Z,100722.22
2023-05-10T15:52:01.902Z,100757.53
2023-05-10T16:02:04.309Z,100749.00
2023-05-10T16:12:05.923Z,100769.75
2023-05-10T16:22:07.640Z,100783.78
2023-05-10T16:32:09.094Z,100786.69
2023-05-10T16:42:10.645Z,100794.84
2023-05-10T16:52:12.458Z,100790.28
2023-05-10T17:02:14.927Z,100798.38
2023-05-10T17:12:16.391Z,100805.38
2023-05-10T17:22:18.025Z,100808.22
2023-05-10T17:32:19.381Z,100812.72
2023-05-10T17:42:20.980Z,100823.94
2023-05-10T17:52:22.721Z,100820.63
2023-05-10T18:02:24.292Z,100825.00
2023-05-10T18:12:25.755Z,100836.25
2023-05-10T18:22:27.163Z,100846.69
2023-05-10T18:32:28.567Z,100858.84
2023-05-10T18:42:30.235Z,100862.34
2023-05-10T18:52:31.652Z,100862.41
2023-05-10T19:02:33.100Z,100877.38
2023-05-10T19:12:35.054Z,100878.22
2023-05-10T19:22:54.300Z,100884.53
2023-05-10T19:32:58.129Z,100901.22
2023-05-10T19:43:00.518Z,100899.53
2023-05-10T19:53:02.084Z,100898.94
2023-05-10T20:13:06.958Z,100894.03
2023-05-10T20:23:08.360Z,100896.09
2023-05-10T20:33:09.797Z,100895.50
2023-05-10T20:43:11.378Z,100888.81
2023-05-10T20:53:14.618Z,100892.25
2023-05-10T21:03:16.267Z,100902.94
2023-05-10T21:13:17.710Z,100900.25
2023-05-10T21:23:19.217Z,100901.19
2023-05-10T21:33:20.696Z,100914.31
2023-05-10T21:43:22.084Z,100917.81
2023-05-10T21:53:23.452Z,100924.69
2023-05-10T22:03:24.920Z,100920.34
2023-05-10T22:13:26.615Z,100918.63
2023-05-10T22:23:27.965Z,100926.31
2023-05-10T22:33:29.342Z,100924.66
2023-05-10T22:43:30.726Z,100924.59
2023-05-10T22:53:32.098Z,100927.19
2023-05-10T23:03:33.504Z,100925.41
2023-05-10T23:13:34.923Z,100931.28
2023-05-10T23:23:37.193Z,100934.91
2023-05-10T23:33:38.587Z,100929.69
2023-05-10T23:43:40.028Z,100929.66
2023-05-10T23:53:41.609Z,100926.28
